createdAt,value
2022-09-23T00:00:27.519Z,63.73
2022-09-23T00:01:28.513Z,63.72
2022-09-23T00:02:27.853Z,63.70
2022-09-23T00:03:28.070Z,63.67
2022-09-23T00:04:27.606Z,63.66
2022-09-23T00:05:28.683Z,63.63
2022-09-23T00:06:34.810Z,63.63
2022-09-23T00:07:27.482Z,63.59
2022-09-23T00:08:27.464Z,63.57
2022-09-23T00:09:27.512Z,63.54
2022-09-23T00:10:27.458Z,63.52
2022-09-23T00:11:29.365Z,63.49
2022-09-23T00:12:27.430Z,63.46
2022-09-23T00:13:27.456Z,63.46
2022-09-23T00:14:27.452Z,63.46
2022-09-23T00:15:27.597Z,63.47
2022-09-23T00:16:28.833Z,63.46
2022-09-23T00:17:29.175Z,63.45
2022-09-23T00:18:32.735Z,63.44
2022-09-23T00:19:27.265Z,63.42
2022-09-23T00:20:29.477Z,63.41
2022-09-23T00:21:27.335Z,63.38
2022-09-23T00:22:49.578Z,63.35
2022-09-23T00:23:27.301Z,63.36
2022-09-23T00:24:27.467Z,63.34
2022-09-23T00:25:27.854Z,63.30
2022-09-23T00:26:27.520Z,63.30
2022-09-23T00:27:28.253Z,63.30
2022-09-23T00:28:28.932Z,63.29
2022-09-23T00:29:30.365Z,63.28
2022-09-23T00:30:27.391Z,63.29
2022-09-23T00:31:27.158Z,63.29
2022-09-23T00:32:28.074Z,63.28
2022-09-23T00:33:27.271Z,63.29
2022-09-23T00:34:27.378Z,63.30
2022-09-23T00:35:27.340Z,63.31
2022-09-23T00:36:27.182Z,63.34
2022-09-23T00:37:28.309Z,63.37
2022-09-23T00:38:27.040Z,63.37
2022-09-23T00:39:27.137Z,63.39
2022-09-23T00:40:27.385Z,63.40
2022-09-23T00:41:27.054Z,63.40
2022-09-23T00:42:26.936Z,63.40
2022-09-23T00:43:30.724Z,63.41
2022-09-23T00:44:26.943Z,63.43
2022-09-23T00:45:36.465Z,63.44
2022-09-23T00:46:27.013Z,63.43
2022-09-23T00:47:26.947Z,63.45
2022-09-23T00:48:26.972Z,63.43
2022-09-23T00:49:55.374Z,63.45
2022-09-23T00:50:26.931Z,63.42
2022-09-23T00:51:27.992Z,63.42
2022-09-23T00:52:26.997Z,63.39
2022-09-23T00:53:27.250Z,63.37
2022-09-23T00:54:26.905Z,63.34
2022-09-23T00:55:29.061Z,63.31
2022-09-23T00:56:32.062Z,63.30
2022-09-23T00:57:27.040Z,63.28
2022-09-23T00:58:33.199Z,63.26
2022-09-23T00:59:26.835Z,63.25
2022-09-23T01:00:27.799Z,63.24
2022-09-23T01:01:27.103Z,63.26
2022-09-23T01:02:27.103Z,63.26
2022-09-23T01:03:26.693Z,63.29
2022-09-23T01:04:29.660Z,63.30
2022-09-23T01:05:27.831Z,63.28
2022-09-23T01:06:27.796Z,63.28
2022-09-23T01:07:26.621Z,63.28
2022-09-23T01:08:26.805Z,63.27
2022-09-23T01:09:33.081Z,63.26
2022-09-23T01:10:28.751Z,63.26
2022-09-23T01:11:27.818Z,63.26
2022-09-23T01:12:26.727Z,63.27
2022-09-23T01:13:26.752Z,63.28
2022-09-23T01:14:26.630Z,63.28
2022-09-23T01:15:26.663Z,63.30
2022-09-23T01:16:39.705Z,63.32
2022-09-23T01:17:26.750Z,63.34
2022-09-23T01:18:26.565Z,63.33
2022-09-23T01:19:26.483Z,63.34
2022-09-23T01:20:26.645Z,63.36
2022-09-23T01:21:32.766Z,63.38
2022-09-23T01:22:27.776Z,63.39
2022-09-23T01:23:26.588Z,63.40
2022-09-23T01:24:26.499Z,63.42
2022-09-23T01:25:26.846Z,63.44
2022-09-23T01:26:27.388Z,63.42
2022-09-23T01:27:26.783Z,63.45
2022-09-23T01:28:26.577Z,63.46
2022-09-23T01:29:26.494Z,63.46
2022-09-23T01:30:27.407Z,63.47
2022-09-23T01:31:33.071Z,63.49
2022-09-23T01:32:30.498Z,63.46
2022-09-23T01:33:26.523Z,63.48
2022-09-23T01:34:26.564Z,63.49
2022-09-23T01:35:26.419Z,63.52
2022-09-23T01:36:26.415Z,63.52
2022-09-23T01:37:47.862Z,63.53
2022-09-23T01:38:27.501Z,63.54
2022-09-23T01:39:32.171Z,63.52
2022-09-23T01:40:26.430Z,63.53
2022-09-23T01:41:27.503Z,63.50
2022-09-23T01:42:26.341Z,63.50
2022-09-23T01:43:34.463Z,63.48
2022-09-23T01:44:27.231Z,63.48
2022-09-23T01:45:27.241Z,63.49
2022-09-23T01:46:26.165Z,63.48
2022-09-23T01:47:26.501Z,63.50
2022-09-23T01:48:26.246Z,63.52
2022-09-23T01:49:33.614Z,63.49
2022-09-23T01:50:28.144Z,63.48
2022-09-23T01:51:26.182Z,63.47
2022-09-23T01:52:26.173Z,63.46
2022-09-23T01:53:26.140Z,63.44
2022-09-23T01:54:27.334Z,63.43
2022-09-23T01:55:26.189Z,63.43
2022-09-23T01:56:26.034Z,63.44
2022-09-23T01:57:26.109Z,63.44
2022-09-23T01:58:25.974Z,63.43
2022-09-23T01:59:29.108Z,63.44
2022-09-23T02:00:27.208Z,63.42
2022-09-23T02:01:25.950Z,63.41
2022-09-23T02:02:29.387Z,63.39
2022-09-23T02:03:25.927Z,63.39
2022-09-23T02:04:27.849Z,63.38
2022-09-23T02:05:26.004Z,63.40
2022-09-23T02:06:26.124Z,63.38
2022-09-23T02:07:26.663Z,63.37
2022-09-23T02:08:25.904Z,63.36
2022-09-23T02:09:26.791Z,63.36
2022-09-23T02:10:26.076Z,63.38
2022-09-23T02:11:25.827Z,63.38
2022-09-23T02:12:26.931Z,63.37
2022-09-23T02:13:25.838Z,63.35
2022-09-23T02:14:25.966Z,63.32
2022-09-23T02:15:26.714Z,63.29
2022-09-23T02:16:26.074Z,63.28
2022-09-23T02:17:25.913Z,63.25
2022-09-23T02:18:25.918Z,63.26
2022-09-23T02:19:25.720Z,63.27
2022-09-23T02:20:26.892Z,63.27
2022-09-23T02:21:25.734Z,63.27
2022-09-23T02:22:26.181Z,63.26
2022-09-23T02:23:25.909Z,63.25
2022-09-23T02:24:25.856Z,63.23
2022-09-23T02:25:26.677Z,63.22
2022-09-23T02:26:25.795Z,63.19
2022-09-23T02:27:25.643Z,63.20
2022-09-23T02:28:25.666Z,63.20
2022-09-23T02:29:25.643Z,63.18
2022-09-23T02:30:25.691Z,63.16
2022-09-23T02:31:26.529Z,63.17
2022-09-23T02:32:25.589Z,63.16
2022-09-23T02:33:25.813Z,63.17
2022-09-23T02:34:25.558Z,63.14
2022-09-23T02:35:25.617Z,63.15
2022-09-23T02:36:25.836Z,63.11
2022-09-23T02:37:31.917Z,63.10
2022-09-23T02:38:25.498Z,63.10
2022-09-23T02:39:25.444Z,63.08
2022-09-23T02:40:25.750Z,63.07
2022-09-23T02:41:26.101Z,63.09
2022-09-23T02:42:27.716Z,63.09
2022-09-23T02:43:25.462Z,63.09
2022-09-23T02:44:26.239Z,63.08
2022-09-23T02:45:25.456Z,63.04
2022-09-23T02:46:25.494Z,63.03
2022-09-23T02:47:25.425Z,63.01
2022-09-23T02:48:52.591Z,63.02
2022-09-23T02:49:25.427Z,63.00
2022-09-23T02:50:27.644Z,63.03
2022-09-23T02:51:25.593Z,63.02
2022-09-23T02:52:26.710Z,63.03
2022-09-23T02:53:25.341Z,63.04
2022-09-23T02:54:29.878Z,63.05
2022-09-23T02:55:25.411Z,63.03
2022-09-23T02:56:25.233Z,63.02
2022-09-23T02:57:25.278Z,63.01
2022-09-23T02:58:25.334Z,63.01
2022-09-23T02:59:25.245Z,63.01
2022-09-23T03:00:26.670Z,63.00
2022-09-23T03:01:26.293Z,62.97
2022-09-23T03:02:25.297Z,62.97
2022-09-23T03:03:25.318Z,62.95
2022-09-23T03:04:25.094Z,62.95
2022-09-23T03:05:25.279Z,62.94
2022-09-23T03:06:26.073Z,62.92
2022-09-23T03:07:28.032Z,62.92
2022-09-23T03:08:26.607Z,62.93
2022-09-23T03:09:26.732Z,62.92
2022-09-23T03:10:26.135Z,62.90
2022-09-23T03:11:27.255Z,62.91
2022-09-23T03:12:25.186Z,62.89
2022-09-23T03:13:36.499Z,62.89
2022-09-23T03:14:25.243Z,62.88
2022-09-23T03:15:28.558Z,62.89
2022-09-23T03:16:25.102Z,62.88
2022-09-23T03:17:59.733Z,62.86
2022-09-23T03:18:25.378Z,62.87
2022-09-23T03:19:32.709Z,62.85
2022-09-23T03:20:25.037Z,62.85
2022-09-23T03:22:08.552Z,62.57
2022-09-23T03:23:15.065Z,62.86
2022-09-23T03:24:09.926Z,62.89
2022-09-23T03:25:08.509Z,62.91
2022-09-23T03:26:08.635Z,62.92
2022-09-23T03:27:08.611Z,62.92
2022-09-23T03:28:09.226Z,62.92
2022-09-23T03:29:08.544Z,62.93
2022-09-23T03:30:08.441Z,62.92
2022-09-23T03:31:09.195Z,62.92
2022-09-23T03:32:13.019Z,62.90
2022-09-23T03:33:09.751Z,62.90
2022-09-23T03:34:15.456Z,62.90
2022-09-23T03:35:08.907Z,62.89
2022-09-23T03:36:10.023Z,62.88
2022-09-23T03:37:09.473Z,62.85
2022-09-23T03:38:09.183Z,62.86
2022-09-23T03:39:09.145Z,62.86
2022-09-23T03:40:08.517Z,62.87
2022-09-23T03:41:08.211Z,62.87
2022-09-23T03:42:08.168Z,62.87
2022-09-23T03:43:08.133Z,62.87
2022-09-23T03:44:08.092Z,62.86
2022-09-23T03:45:10.259Z,62.88
2022-09-23T03:46:09.367Z,62.87
2022-09-23T03:47:09.221Z,62.91
2022-09-23T03:48:08.183Z,62.89
2022-09-23T03:49:09.141Z,62.90
2022-09-23T03:50:10.441Z,62.92
2022-09-23T03:51:11.748Z,62.91
2022-09-23T03:52:09.741Z,62.92
2022-09-23T03:53:09.274Z,62.93
2022-09-23T03:54:14.373Z,62.91
2022-09-23T03:55:08.662Z,62.92
2022-09-23T03:56:09.364Z,62.93
2022-09-23T03:57:09.040Z,62.94
2022-09-23T03:58:08.149Z,62.95
2022-09-23T03:59:08.233Z,62.95
2022-09-23T04:00:08.927Z,62.95
2022-09-23T04:01:19.975Z,62.95
2022-09-23T04:02:10.487Z,62.95
2022-09-23T04:03:11.545Z,62.98
2022-09-23T04:04:07.854Z,63.02
2022-09-23T04:05:08.032Z,63.05
2022-09-23T04:06:08.538Z,63.11
2022-09-23T04:07:08.797Z,63.13
2022-09-23T04:08:08.113Z,63.18
2022-09-23T04:09:08.057Z,63.20
2022-09-23T04:10:07.852Z,63.22
2022-09-23T04:11:07.676Z,63.21
2022-09-23T04:12:09.143Z,63.22
2022-09-23T04:13:07.946Z,63.20
2022-09-23T04:14:09.099Z,63.20
2022-09-23T04:15:07.831Z,63.20
2022-09-23T04:16:08.808Z,63.17
2022-09-23T04:17:08.717Z,63.17
2022-09-23T04:18:07.771Z,63.14
2022-09-23T04:19:11.478Z,63.13
2022-09-23T04:20:07.810Z,63.12
2022-09-23T04:21:07.662Z,63.13
2022-09-23T04:22:16.542Z,63.14
2022-09-23T04:23:07.582Z,63.13
2022-09-23T04:24:14.491Z,63.14
2022-09-23T04:25:08.515Z,63.13
2022-09-23T04:26:07.517Z,63.13
2022-09-23T04:27:08.162Z,63.11
2022-09-23T04:28:08.481Z,63.09
2022-09-23T04:29:14.138Z,63.08
2022-09-23T04:30:07.728Z,63.10
2022-09-23T04:31:07.760Z,63.07
2022-09-23T04:32:08.584Z,63.08
2022-09-23T04:33:07.750Z,63.09
2022-09-23T04:34:32.056Z,63.12
2022-09-23T04:35:07.393Z,63.16
2022-09-23T04:36:08.312Z,63.18
2022-09-23T04:37:07.520Z,63.22
2022-09-23T04:38:07.679Z,63.22
2022-09-23T04:39:07.799Z,63.20
2022-09-23T04:40:08.337Z,63.20
2022-09-23T04:41:07.368Z,63.20
2022-09-23T04:42:07.355Z,63.19
2022-09-23T04:43:12.876Z,63.18
2022-09-23T04:44:09.175Z,63.16
2022-09-23T04:45:08.551Z,63.14
2022-09-23T04:46:07.568Z,63.14
2022-09-23T04:47:54.285Z,63.10
2022-09-23T04:48:09.262Z,63.10
2022-09-23T04:49:08.065Z,63.12
2022-09-23T04:50:07.738Z,63.10
2022-09-23T04:51:10.571Z,63.10
2022-09-23T04:52:07.501Z,63.09
2022-09-23T04:53:07.981Z,63.11
2022-09-23T04:54:09.599Z,63.10
2022-09-23T04:55:11.213Z,63.12
2022-09-23T04:56:08.479Z,63.12
2022-09-23T04:57:07.237Z,63.10
2022-09-23T04:58:13.434Z,63.12
2022-09-23T04:59:08.566Z,63.10
2022-09-23T05:00:08.246Z,63.09
2022-09-23T05:01:08.434Z,63.06
2022-09-23T05:02:07.289Z,63.04
2022-09-23T05:03:07.716Z,63.01
2022-09-23T05:04:06.993Z,62.99
2022-09-23T05:05:07.367Z,62.96
2022-09-23T05:06:10.803Z,62.94
2022-09-23T05:07:15.461Z,62.94
2022-09-23T05:08:07.091Z,62.93
2022-09-23T05:09:07.217Z,62.90
2022-09-23T05:10:06.977Z,62.89
2022-09-23T05:11:08.023Z,62.86
2022-09-23T05:12:08.458Z,62.82
2022-09-23T05:13:07.090Z,62.77
2022-09-23T05:14:13.524Z,62.75
2022-09-23T05:15:07.279Z,62.71
2022-09-23T05:16:07.043Z,62.64
2022-09-23T05:17:07.097Z,62.60
2022-09-23T05:18:07.820Z,62.59
2022-09-23T05:19:08.036Z,62.55
2022-09-23T05:20:07.185Z,62.54
2022-09-23T05:21:07.289Z,62.50
2022-09-23T05:22:13.200Z,62.46
2022-09-23T05:23:08.219Z,62.45
2022-09-23T05:24:07.057Z,62.43
2022-09-23T05:25:07.181Z,62.41
2022-09-23T05:26:07.742Z,62.38
2022-09-23T05:27:06.867Z,62.37
2022-09-23T05:28:07.331Z,62.35
2022-09-23T05:29:09.113Z,62.33
2022-09-23T05:30:06.900Z,62.29
2022-09-23T05:31:09.722Z,62.25
2022-09-23T05:32:06.828Z,62.23
2022-09-23T05:33:06.745Z,62.20
2022-09-23T05:34:06.712Z,62.16
2022-09-23T05:35:07.690Z,62.12
2022-09-23T05:36:07.065Z,62.10
2022-09-23T05:37:09.092Z,62.06
2022-09-23T05:38:07.522Z,62.04
2022-09-23T05:39:07.812Z,62.02
2022-09-23T05:40:07.646Z,61.99
2022-09-23T05:41:08.270Z,61.95
2022-09-23T05:42:06.587Z,61.95
2022-09-23T05:43:06.948Z,61.90
2022-09-23T05:44:06.563Z,61.88
2022-09-23T05:45:16.113Z,61.86
2022-09-23T05:46:12.903Z,61.84
2022-09-23T05:47:06.549Z,61.83
2022-09-23T05:48:06.530Z,61.78
2022-09-23T05:49:06.600Z,61.75
2022-09-23T05:50:08.094Z,61.73
2022-09-23T05:51:06.556Z,61.72
2022-09-23T05:52:12.896Z,61.68
2022-09-23T05:53:07.067Z,61.66
2022-09-23T05:54:07.014Z,61.64
2022-09-23T05:55:12.149Z,61.61
2022-09-23T05:56:06.813Z,61.58
2022-09-23T05:57:07.197Z,61.53
2022-09-23T05:58:06.869Z,61.51
2022-09-23T05:59:06.978Z,61.48
2022-09-23T06:00:07.802Z,61.48
2022-09-23T06:01:13.785Z,61.43
2022-09-23T06:02:14.475Z,61.42
2022-09-23T06:03:07.939Z,61.37
2022-09-23T06:04:07.616Z,61.35
2022-09-23T06:05:06.617Z,61.31
2022-09-23T06:06:39.068Z,61.30
2022-09-23T06:07:07.533Z,61.28
2022-09-23T06:08:06.529Z,61.24
2022-09-23T06:09:06.465Z,61.20
2022-09-23T06:10:06.305Z,61.18
2022-09-23T06:11:06.606Z,61.15
2022-09-23T06:12:07.189Z,61.14
2022-09-23T06:13:08.111Z,61.11
2022-09-23T06:14:06.407Z,61.10
2022-09-23T06:15:06.428Z,61.09
2022-09-23T06:16:06.241Z,61.05
2022-09-23T06:17:06.292Z,61.02
2022-09-23T06:18:07.426Z,61.00
2022-09-23T06:19:07.194Z,60.98
2022-09-23T06:20:07.065Z,60.96
2022-09-23T06:21:06.227Z,60.93
2022-09-23T06:22:06.202Z,60.90
2022-09-23T06:23:08.849Z,60.87
2022-09-23T06:24:07.249Z,60.84
2022-09-23T06:25:07.193Z,60.81
2022-09-23T06:26:06.159Z,60.76
2022-09-23T06:27:11.207Z,60.74
2022-09-23T06:28:06.136Z,60.72
2022-09-23T06:29:07.771Z,60.71
2022-09-23T06:30:07.105Z,60.69
2022-09-23T06:31:12.265Z,60.68
2022-09-23T06:32:07.897Z,60.63
2022-09-23T06:33:06.275Z,60.61
2022-09-23T06:34:11.932Z,60.58
2022-09-23T06:35:20.565Z,60.55
2022-09-23T06:36:07.932Z,60.52
2022-09-23T06:37:15.510Z,60.49
2022-09-23T06:38:07.378Z,60.45
2022-09-23T06:39:05.950Z,60.43
2022-09-23T06:40:06.933Z,60.39
2022-09-23T06:41:06.964Z,60.36
2022-09-23T06:42:05.953Z,60.33
2022-09-23T06:43:05.824Z,60.27
2022-09-23T06:44:07.083Z,60.22
2022-09-23T06:45:06.211Z,60.18
2022-09-23T06:46:12.126Z,60.16
2022-09-23T06:47:06.949Z,60.12
2022-09-23T06:48:05.998Z,60.09
2022-09-23T06:49:05.936Z,60.01
2022-09-23T06:50:23.969Z,59.98
2022-09-23T06:51:05.978Z,59.94
2022-09-23T06:52:05.886Z,59.91
2022-09-23T06:53:07.770Z,59.88
2022-09-23T06:54:06.928Z,59.86
2022-09-23T06:55:06.263Z,59.84
2022-09-23T06:56:07.518Z,59.83
2022-09-23T06:57:08.752Z,59.81
2022-09-23T06:58:07.876Z,59.78
2022-09-23T06:59:05.757Z,59.75
2022-09-23T07:00:06.661Z,59.69
2022-09-23T07:01:06.176Z,59.65
2022-09-23T07:02:08.543Z,59.61
2022-09-23T07:03:07.087Z,59.58
2022-09-23T07:04:08.062Z,59.53
2022-09-23T07:05:07.403Z,59.50
2022-09-23T07:06:06.775Z,59.47
2022-09-23T07:07:05.677Z,59.43
2022-09-23T07:08:06.516Z,59.41
2022-09-23T07:09:12.509Z,59.35
2022-09-23T07:10:05.681Z,59.33
2022-09-23T07:11:05.644Z,59.30
2022-09-23T07:12:27.362Z,59.26
2022-09-23T07:13:05.519Z,59.22
2022-09-23T07:14:06.558Z,59.18
2022-09-23T07:15:07.365Z,59.14
2022-09-23T07:16:06.597Z,59.10
2022-09-23T07:17:06.323Z,59.07
2022-09-23T07:18:05.577Z,59.03
2022-09-23T07:19:08.159Z,59.01
2022-09-23T07:20:07.803Z,58.97
2022-09-23T07:21:06.327Z,58.92
2022-09-23T07:22:05.630Z,58.91
2022-09-23T07:23:18.134Z,58.89
2022-09-23T07:24:05.835Z,58.85
2022-09-23T07:25:06.903Z,58.82
2022-09-23T07:26:07.198Z,58.80
2022-09-23T07:27:06.481Z,58.78
2022-09-23T07:28:06.485Z,58.74
2022-09-23T07:29:05.730Z,58.70
2022-09-23T07:30:07.528Z,58.65
2022-09-23T07:31:06.286Z,58.61
2022-09-23T07:32:13.176Z,58.59
2022-09-23T07:33:27.083Z,58.55
2022-09-23T07:34:07.319Z,58.51
2022-09-23T07:35:05.618Z,58.49
2022-09-23T07:36:05.256Z,58.46
2022-09-23T07:37:06.228Z,58.41
2022-09-23T07:38:14.938Z,58.35
2022-09-23T07:39:13.380Z,58.31
2022-09-23T07:40:07.235Z,58.28
2022-09-23T07:41:05.058Z,58.25
2022-09-23T07:42:31.350Z,58.21
2022-09-23T07:43:12.898Z,58.20
2022-09-23T07:44:06.389Z,58.17
2022-09-23T07:45:05.760Z,58.15
2022-09-23T07:46:05.661Z,58.13
2022-09-23T07:47:06.707Z,58.10
2022-09-23T07:48:05.084Z,58.09
2022-09-23T07:49:08.839Z,58.06
2022-09-23T07:50:05.658Z,58.02
2022-09-23T07:51:06.643Z,57.99
2022-09-23T07:52:05.443Z,57.97
2022-09-23T07:53:05.631Z,57.96
2022-09-23T07:54:14.558Z,57.93
2022-09-23T07:55:04.944Z,57.92
2022-09-23T07:56:05.517Z,57.90
2022-09-23T07:57:05.148Z,57.87
2022-09-23T07:58:19.181Z,57.83
2022-09-23T07:59:15.579Z,57.82
2022-09-23T08:00:15.885Z,57.79
2022-09-23T08:01:05.778Z,57.76
2022-09-23T08:02:08.954Z,57.74
2022-09-23T08:03:06.621Z,57.72
2022-09-23T08:04:07.002Z,57.68
2022-09-23T08:05:05.860Z,57.64
2022-09-23T08:06:04.929Z,57.63
2022-09-23T08:07:05.320Z,57.60
2022-09-23T08:08:05.876Z,57.57
2022-09-23T08:09:07.727Z,57.53
2022-09-23T08:10:13.093Z,57.51
2022-09-23T08:11:15.191Z,57.49
2022-09-23T08:12:05.038Z,57.45
2022-09-23T08:13:04.769Z,57.44
2022-09-23T08:14:06.683Z,57.41
2022-09-23T08:15:05.811Z,57.40
2022-09-23T08:16:06.116Z,57.39
2022-09-23T08:17:04.644Z,57.35
2022-09-23T08:18:05.471Z,57.33
2022-09-23T08:19:12.706Z,57.30
2022-09-23T08:20:05.752Z,57.28
2022-09-23T08:21:06.311Z,57.26
2022-09-23T08:22:04.673Z,57.25
2022-09-23T08:23:10.243Z,57.24
2022-09-23T08:24:06.857Z,57.22
2022-09-23T08:25:06.608Z,57.21
2022-09-23T08:26:16.198Z,57.21
2022-09-23T08:27:07.806Z,57.21
2022-09-23T08:28:04.475Z,57.19
2022-09-23T08:29:04.295Z,57.19
2022-09-23T08:30:06.497Z,57.20
2022-09-23T08:31:05.435Z,57.20
2022-09-23T08:32:04.506Z,57.22
2022-09-23T08:33:12.293Z,57.21
2022-09-23T08:34:08.916Z,57.23
2022-09-23T08:35:04.506Z,57.24
2022-09-23T08:36:06.337Z,57.23
2022-09-23T08:37:06.265Z,57.25
2022-09-23T08:38:04.425Z,57.25
2022-09-23T08:39:12.150Z,57.24
2022-09-23T08:40:04.387Z,57.24
2022-09-23T08:41:10.693Z,57.21
2022-09-23T08:42:05.259Z,57.20
2022-09-23T08:43:04.652Z,57.18
2022-09-23T08:44:07.841Z,57.16
2022-09-23T08:45:04.817Z,57.14
2022-09-23T08:46:05.748Z,57.11
2022-09-23T08:47:05.318Z,57.09
2022-09-23T08:48:06.057Z,57.06
2022-09-23T08:49:12.031Z,57.06
2022-09-23T08:50:05.416Z,57.05
2022-09-23T08:51:04.488Z,57.02
2022-09-23T08:52:04.313Z,57.02
2022-09-23T08:53:04.199Z,57.01
2022-09-23T08:54:06.062Z,57.04
2022-09-23T08:55:14.680Z,57.04
2022-09-23T08:56:04.197Z,57.03
2022-09-23T08:57:04.443Z,57.04
2022-09-23T08:58:24.367Z,57.04
2022-09-23T08:59:06.119Z,57.02
2022-09-23T09:00:04.281Z,57.00
2022-09-23T09:01:10.572Z,56.99
2022-09-23T09:02:06.254Z,56.97
2022-09-23T09:03:05.271Z,56.96
2022-09-23T09:04:04.293Z,56.94
2022-09-23T09:05:05.723Z,56.92
2022-09-23T09:06:04.978Z,56.92
2022-09-23T09:07:31.686Z,56.94
2022-09-23T09:08:06.139Z,56.94
2022-09-23T09:09:04.211Z,56.95
2022-09-23T09:10:04.280Z,56.94
2022-09-23T09:11:04.460Z,56.94
2022-09-23T09:12:04.004Z,56.95
2022-09-23T09:13:12.238Z,56.94
2022-09-23T09:14:05.197Z,56.91
2022-09-23T09:15:04.773Z,56.89
2022-09-23T09:16:04.543Z,56.88
2022-09-23T09:17:04.913Z,56.86
2022-09-23T09:18:04.995Z,56.84
2022-09-23T09:19:04.024Z,56.82
2022-09-23T09:20:05.713Z,56.78
2022-09-23T09:21:05.667Z,56.76
2022-09-23T09:22:03.695Z,56.73
2022-09-23T09:23:05.939Z,56.70
2022-09-23T09:24:04.370Z,56.69
2022-09-23T09:25:05.767Z,56.66
2022-09-23T09:26:03.938Z,56.64
2022-09-23T09:27:05.369Z,56.62
2022-09-23T09:28:10.483Z,56.58
2022-09-23T09:29:17.094Z,56.57
2022-09-23T09:30:05.192Z,56.56
2022-09-23T09:31:04.183Z,56.54
2022-09-23T09:32:03.802Z,56.53
2022-09-23T09:33:04.905Z,56.52
2022-09-23T09:34:04.839Z,56.50
2022-09-23T09:35:03.524Z,56.47
2022-09-23T09:36:03.708Z,56.45
2022-09-23T09:37:07.003Z,56.46
2022-09-23T09:38:10.263Z,56.47
2022-09-23T09:39:03.849Z,56.48
2022-09-23T09:40:04.733Z,56.50
2022-09-23T09:41:03.762Z,56.52
2022-09-23T09:42:03.549Z,56.51
2022-09-23T09:43:03.931Z,56.52
2022-09-23T09:44:08.361Z,56.51
2022-09-23T09:45:05.561Z,56.50
2022-09-23T09:46:03.854Z,56.50
2022-09-23T09:47:03.554Z,56.50
2022-09-23T09:48:04.418Z,56.49
2022-09-23T09:49:03.362Z,56.49
2022-09-23T09:50:03.625Z,56.46
2022-09-23T09:51:09.903Z,56.44
2022-09-23T09:52:03.840Z,56.41
2022-09-23T09:53:04.374Z,56.38
2022-09-23T09:54:04.443Z,56.36
2022-09-23T09:55:03.695Z,56.32
2022-09-23T09:56:05.251Z,56.28
2022-09-23T09:57:04.526Z,56.24
2022-09-23T09:58:03.214Z,56.22
2022-09-23T09:59:03.793Z,56.18
2022-09-23T10:00:03.635Z,56.12
2022-09-23T10:01:03.571Z,56.07
2022-09-23T10:02:04.192Z,56.02
2022-09-23T10:03:03.410Z,55.96
2022-09-23T10:04:06.222Z,55.90
2022-09-23T10:05:03.169Z,55.83
2022-09-23T10:06:03.431Z,55.75
2022-09-23T10:07:03.944Z,55.69
2022-09-23T10:08:04.604Z,55.61
2022-09-23T10:09:03.145Z,55.54
2022-09-23T10:10:15.959Z,55.48
2022-09-23T10:11:04.072Z,55.38
2022-09-23T10:12:03.219Z,55.29
2022-09-23T10:13:05.522Z,55.22
2022-09-23T10:14:05.013Z,55.17
2022-09-23T10:15:10.357Z,55.16
2022-09-23T10:16:04.844Z,55.12
2022-09-23T10:17:03.018Z,55.09
2022-09-23T10:18:04.184Z,55.09
2022-09-23T10:19:03.098Z,55.06
2022-09-23T10:20:03.988Z,55.06
2022-09-23T10:21:04.552Z,55.03
2022-09-23T10:22:03.185Z,55.00
2022-09-23T10:23:04.766Z,54.99
2022-09-23T10:24:04.054Z,54.98
2022-09-23T10:25:03.217Z,54.98
2022-09-23T10:26:03.831Z,54.98
2022-09-23T10:27:03.135Z,54.99
2022-09-23T10:28:07.944Z,54.97
2022-09-23T10:29:03.830Z,54.96
2022-09-23T10:30:04.146Z,54.96
2022-09-23T10:31:03.749Z,54.94
2022-09-23T10:32:04.353Z,54.93
2022-09-23T10:33:06.605Z,54.95
2022-09-23T10:34:03.837Z,54.92
2022-09-23T10:35:11.432Z,54.92
2022-09-23T10:36:03.832Z,54.92
2022-09-23T10:37:04.112Z,54.92
2022-09-23T10:38:03.637Z,54.88
2022-09-23T10:39:03.718Z,54.86
2022-09-23T10:40:02.755Z,54.79
2022-09-23T10:41:04.227Z,54.76
2022-09-23T10:42:03.805Z,54.73
2022-09-23T10:43:03.851Z,54.71
2022-09-23T10:44:03.651Z,54.68
2022-09-23T10:45:02.973Z,54.66
2022-09-23T10:46:50.956Z,54.13
2022-09-23T10:47:50.989Z,54.62
2022-09-23T10:48:51.228Z,54.61
2022-09-23T10:49:54.212Z,54.59
2022-09-23T10:50:50.631Z,54.58
2022-09-23T10:51:51.813Z,54.53
2022-09-23T10:52:51.729Z,54.51
2022-09-23T10:53:50.824Z,54.50
2022-09-23T10:54:50.842Z,54.48
2022-09-23T10:55:50.403Z,54.39
2022-09-23T10:56:59.247Z,54.33
2022-09-23T10:57:51.619Z,54.29
2022-09-23T10:58:50.351Z,54.29
2022-09-23T10:59:50.324Z,54.28
2022-09-23T11:01:11.476Z,54.26
2022-09-23T11:01:51.185Z,54.21
2022-09-23T11:02:52.520Z,54.17
2022-09-23T11:03:50.584Z,54.14
2022-09-23T11:04:52.185Z,54.09
2022-09-23T11:05:50.567Z,54.02
2022-09-23T11:06:50.593Z,53.99
2022-09-23T11:07:50.730Z,53.95
2022-09-23T11:08:57.006Z,53.93
2022-09-23T11:09:50.854Z,53.90
2022-09-23T11:10:50.297Z,53.82
2022-09-23T11:11:50.225Z,53.77
2022-09-23T11:12:50.804Z,53.70
2022-09-23T11:13:54.605Z,53.64
2022-09-23T11:14:50.928Z,53.59
2022-09-23T11:15:54.878Z,53.55
2022-09-23T11:16:58.823Z,53.55
2022-09-23T11:17:50.656Z,53.54
2022-09-23T11:18:52.772Z,53.54
2022-09-23T11:19:50.306Z,53.53
2022-09-23T11:20:51.376Z,53.55
2022-09-23T11:21:50.320Z,53.59
2022-09-23T11:22:51.746Z,53.63
2022-09-23T11:23:52.890Z,53.68
2022-09-23T11:24:50.713Z,53.73
2022-09-23T11:25:51.000Z,53.74
2022-09-23T11:26:51.621Z,53.79
2022-09-23T11:27:50.470Z,53.87
2022-09-23T11:28:51.175Z,53.97
2022-09-23T11:29:51.299Z,54.03
2022-09-23T11:30:51.392Z,54.06
2022-09-23T11:31:50.658Z,54.13
2022-09-23T11:32:50.581Z,54.18
2022-09-23T11:33:50.760Z,54.21
2022-09-23T11:34:54.826Z,54.23
2022-09-23T11:35:50.234Z,54.23
2022-09-23T11:36:50.309Z,54.20
2022-09-23T11:37:55.675Z,54.18
2022-09-23T11:38:52.210Z,54.17
2022-09-23T11:39:51.761Z,54.17
2022-09-23T11:40:51.818Z,54.19
2022-09-23T11:41:49.940Z,54.21
2022-09-23T11:42:50.061Z,54.20
2022-09-23T11:43:51.141Z,54.21
2022-09-23T11:44:50.433Z,54.21
2022-09-23T11:45:59.623Z,54.21
2022-09-23T11:46:52.211Z,54.23
2022-09-23T11:47:49.951Z,54.25
2022-09-23T11:48:49.941Z,54.25
2022-09-23T11:49:51.339Z,54.28
2022-09-23T11:50:49.918Z,54.34
2022-09-23T11:51:57.882Z,54.38
2022-09-23T11:52:51.223Z,54.45
2022-09-23T11:53:50.737Z,54.50
2022-09-23T11:54:50.194Z,54.58
2022-09-23T11:55:57.071Z,54.64
2022-09-23T11:56:52.176Z,54.72
2022-09-23T11:57:50.931Z,54.78
2022-09-23T11:58:57.014Z,54.87
2022-09-23T11:59:52.080Z,54.93
2022-09-23T12:00:53.691Z,55.00
2022-09-23T12:01:53.554Z,55.05
2022-09-23T12:03:04.711Z,55.11
2022-09-23T12:03:52.019Z,55.17
2022-09-23T12:04:58.818Z,55.21
2022-09-23T12:05:49.688Z,55.22
2022-09-23T12:06:50.552Z,55.25
2022-09-23T12:07:50.871Z,55.28
2022-09-23T12:08:50.679Z,55.35
2022-09-23T12:09:58.513Z,55.39
2022-09-23T12:10:49.729Z,55.39
2022-09-23T12:11:49.780Z,55.35
2022-09-23T12:12:56.518Z,55.36
2022-09-23T12:13:50.044Z,55.40
2022-09-23T12:14:51.834Z,55.38
2022-09-23T12:15:50.374Z,55.40
2022-09-23T12:16:50.472Z,55.41
2022-09-23T12:17:49.593Z,55.41
2022-09-23T12:18:56.025Z,55.40
2022-09-23T12:19:50.203Z,55.36
2022-09-23T12:20:49.335Z,55.35
2022-09-23T12:21:56.069Z,55.32
2022-09-23T12:22:49.504Z,55.33
2022-09-23T12:23:49.218Z,55.29
2022-09-23T12:24:50.970Z,55.25
2022-09-23T12:25:50.395Z,55.23
2022-09-23T12:26:50.172Z,55.20
2022-09-23T12:27:49.961Z,55.20
2022-09-23T12:28:50.147Z,55.19
2022-09-23T12:29:49.371Z,55.14
2022-09-23T12:30:50.478Z,55.11
2022-09-23T12:31:49.161Z,55.05
2022-09-23T12:32:49.266Z,54.97
2022-09-23T12:33:49.590Z,54.90
2022-09-23T12:34:50.207Z,54.85
2022-09-23T12:35:59.971Z,54.80
2022-09-23T12:36:49.658Z,54.78
2022-09-23T12:37:49.108Z,54.74
2022-09-23T12:38:49.445Z,54.70
2022-09-23T12:39:49.754Z,54.70
2022-09-23T12:40:54.674Z,54.67
2022-09-23T12:41:50.241Z,54.64
2022-09-23T12:42:49.263Z,54.61
2022-09-23T12:43:50.217Z,54.56
2022-09-23T12:44:50.129Z,54.52
2022-09-23T12:45:51.342Z,54.48
2022-09-23T12:46:48.997Z,54.42
2022-09-23T12:47:50.028Z,54.32
2022-09-23T12:48:49.078Z,54.10
2022-09-23T12:49:49.425Z,53.53
2022-09-23T12:50:50.043Z,51.77
2022-09-23T12:51:56.684Z,48.84
2022-09-23T12:52:49.078Z,46.15
2022-09-23T12:53:49.354Z,43.96